Time;durP1;ratioP1;P1;durP2;ratioP2;P2;SDS_P1;SDS_P2;PMS_P1;PMS_P2;Temp;Humidity;BMP_temperature;BMP_pressure;BME280_temperature;BME280_humidity;BME280_pressure;Samples;Min_cycle;Max_cycle;Signal;HPM_P1;HPM_P2
2023/10/11 00:00:56;;;;;;;6.78;2.00;;;23.40;60.40;;;;;;5053513;28;20037;-79
2023/10/11 00:05:55;;;;;;;5.97;2.00;;;23.70;60.50;;;;;;5054324;28;20013;-77
2023/10/11 00:08:26;;;;;;;4.25;2.05;;;24.00;60.00;;;;;;5054609;28;20081;-79
2023/10/11 00:10:55;;;;;;;6.78;2.30;;;24.20;59.70;;;;;;5054382;28;20028;-78
2023/10/11 00:13:33;;;;;;;7.22;2.60;;;24.40;58.50;;;;;;5069511;28;20044;-78
2023/10/11 00:16:09;;;;;;;5.35;2.00;;;24.60;58.50;;;;;;5048885;28;20030;-79
2023/10/11 00:18:39;;;;;;;5.88;1.85;;;24.70;57.60;;;;;;5043572;28;20048;-78
2023/10/11 00:21:16;;;;;;;6.88;2.67;;;24.80;57.50;;;;;;5053583;28;20029;-78
2023/10/11 00:23:51;;;;;;;3.75;1.92;;;24.80;57.50;;;;;;5050909;28;20036;-79
2023/10/11 00:26:19;;;;;;;4.38;1.98;;;24.90;57.50;;;;;;5053147;28;20048;-79
2023/10/11 00:28:47;;;;;;;7.40;2.20;;;24.90;57.30;;;;;;5053766;28;20082;-79
2023/10/11 00:31:19;;;;;;;8.60;2.40;;;25.20;56.10;;;;;;5053310;28;20415;-78
2023/10/11 00:33:47;;;;;;;7.50;2.22;;;25.50;55.10;;;;;;5052632;28;20028;-85
2023/10/11 00:36:29;;;;;;;6.30;2.45;;;25.70;55.20;;;;;;5050703;28;20024;-81
2023/10/11 00:38:58;;;;;;;8.32;2.17;;;25.80;54.80;;;;;;5040308;28;20061;-78
2023/10/11 00:41:30;;;;;;;7.10;1.90;;;25.80;54.80;;;;;;5051234;28;20426;-79
2023/10/11 00:43:58;;;;;;;9.10;2.83;;;25.90;55.20;;;;;;5044207;28;20029;-79
2023/10/11 00:46:58;;;;;;;5.68;2.25;;;26.20;54.00;;;;;;5033340;28;20022;-82
2023/10/11 00:49:21;;;;;;;5.75;2.40;;;26.30;53.60;;;;;;5034293;28;20120;-80
2023/10/11 00:51:48;;;;;;;5.63;1.90;;;26.40;54.30;;;;;;5043994;28;20106;-79
2023/10/11 00:54:16;;;;;;;9.27;2.70;;;26.30;53.30;;;;;;5037707;28;20032;-78
2023/10/11 00:56:44;;;;;;;8.18;2.58;;;26.40;52.70;;;;;;5049030;28;20028;-80
2023/10/11 00:59:15;;;;;;;6.35;2.45;;;26.40;53.40;;;;;;5052929;28;20060;-80
2023/10/11 01:01:43;;;;;;;6.25;2.80;;;26.40;53.00;;;;;;5039206;28;20487;-78
2023/10/11 01:04:12;;;;;;;6.03;2.70;;;26.30;52.70;;;;;;5052286;28;20036;-80
2023/10/11 01:06:40;;;;;;;5.75;2.83;;;26.30;52.70;;;;;;5051395;28;20437;-78
2023/10/11 01:09:17;;;;;;;6.28;2.83;;;26.30;52.90;;;;;;5050400;28;20035;-79
2023/10/11 01:11:47;;;;;;;8.02;3.20;;;26.40;53.20;;;;;;5052552;28;20096;-79
2023/10/11 01:14:15;;;;;;;8.18;3.15;;;26.50;53.30;;;;;;5050430;28;20029;-79
2023/10/11 01:16:44;;;;;;;6.47;3.65;;;26.50;52.40;;;;;;5066251;28;20052;-78
2023/10/11 01:19:12;;;;;;;5.82;3.28;;;26.60;52.00;;;;;;5067387;28;20550;-77
2023/10/11 01:21:41;;;;;;;5.25;3.00;;;26.60;52.00;;;;;;5051021;28;20033;-83
2023/10/11 01:24:09;;;;;;;9.43;3.45;;;26.60;52.20;;;;;;5050410;28;20025;-78
2023/10/11 01:26:37;;;;;;;5.60;3.15;;;26.70;52.00;;;;;;5044133;28;20410;-87
2023/10/11 01:29:05;;;;;;;8.00;3.20;;;26.70;51.80;;;;;;5046059;28;20117;-77
2023/10/11 01:31:33;;;;;;;6.00;3.05;;;26.70;52.20;;;;;;5036926;28;20380;-79
2023/10/11 01:34:00;;;;;;;7.15;3.13;;;26.80;51.70;;;;;;5056760;28;20064;-82
2023/10/11 01:36:28;;;;;;;8.05;3.30;;;26.80;51.50;;;;;;5049468;28;20033;-78
2023/10/11 01:39:00;;;;;;;6.78;3.70;;;26.70;51.60;;;;;;5052654;28;20028;-82
2023/10/11 01:41:28;;;;;;;5.25;3.22;;;26.60;52.00;;;;;;5047590;28;20025;-79
2023/10/11 01:43:57;;;;;;;6.18;3.25;;;26.60;52.20;;;;;;5038721;28;20033;-78
2023/10/11 01:46:35;;;;;;;5.93;3.20;;;26.60;52.20;;;;;;5053272;28;20029;-79
2023/10/11 01:49:07;;;;;;;6.10;3.40;;;26.70;51.90;;;;;;5041113;28;20044;-82
2023/10/11 01:51:55;;;;;;;7.55;3.38;;;26.80;51.50;;;;;;5036449;28;20068;-83
2023/10/11 01:54:24;;;;;;;7.53;3.40;;;26.80;51.10;;;;;;5046612;28;20053;-87
2023/10/11 01:56:56;;;;;;;6.35;3.08;;;26.80;51.40;;;;;;5042322;28;20120;-86
2023/10/11 01:59:24;;;;;;;9.75;3.30;;;26.80;51.20;;;;;;5043080;28;20080;-81
2023/10/11 02:01:58;;;;;;;6.15;3.10;;;26.70;51.20;;;;;;5052667;28;20021;-87
2023/10/11 02:04:28;;;;;;;4.97;2.67;;;26.70;51.50;;;;;;5048686;28;20486;-81
2023/10/11 02:06:57;;;;;;;4.30;2.40;;;26.70;51.40;;;;;;5043333;28;20746;-87
2023/10/11 02:09:25;;;;;;;7.38;3.05;;;26.80;51.40;;;;;;5040029;28;20033;-81
2023/10/11 02:11:54;;;;;;;6.25;2.83;;;26.80;51.40;;;;;;5064946;28;20037;-78
2023/10/11 02:14:23;;;;;;;7.53;2.92;;;26.70;51.60;;;;;;5040446;28;20025;-78
2023/10/11 02:16:53;;;;;;;4.93;2.85;;;26.70;51.90;;;;;;5043253;28;20041;-83
2023/10/11 02:19:23;;;;;;;7.75;2.92;;;26.80;51.30;;;;;;5049175;28;20036;-78
2023/10/11 02:21:53;;;;;;;9.82;2.97;;;26.70;51.50;;;;;;5043642;28;20021;-85
2023/10/11 02:24:20;;;;;;;5.18;2.38;;;26.60;51.70;;;;;;5034486;28;20569;-80
2023/10/11 02:26:51;;;;;;;8.13;2.60;;;26.60;52.10;;;;;;5050899;28;20028;-79
2023/10/11 02:29:22;;;;;;;4.82;2.35;;;26.60;52.30;;;;;;5049283;28;20035;-78
2023/10/11 02:31:53;;;;;;;5.50;2.08;;;26.60;52.40;;;;;;5045247;28;20493;-79
2023/10/11 02:34:27;;;;;;;5.43;2.60;;;26.60;52.40;;;;;;5042783;28;20033;-84
2023/10/11 02:37:10;;;;;;;5.85;2.20;;;26.70;52.10;;;;;;5042506;28;20084;-86
2023/10/11 02:39:44;;;;;;;6.88;2.40;;;26.60;52.10;;;;;;5057757;28;20020;-86
2023/10/11 02:42:17;;;;;;;4.50;2.20;;;26.60;52.40;;;;;;5054967;28;20280;-82
2023/10/11 02:44:48;;;;;;;7.63;2.20;;;26.70;52.10;;;;;;5046498;28;20033;-86
2023/10/11 02:47:22;;;;;;;5.90;2.20;;;26.60;52.10;;;;;;5048720;28;20049;-79
2023/10/11 02:49:52;;;;;;;7.72;2.22;;;26.70;51.50;;;;;;5048917;28;20475;-83
2023/10/11 02:52:29;;;;;;;6.00;2.33;;;26.60;51.80;;;;;;5050773;28;20028;-82
2023/10/11 02:54:59;;;;;;;10.00;2.40;;;26.60;52.10;;;;;;5047372;28;20110;-81
2023/10/11 02:57:26;;;;;;;8.90;2.47;;;26.70;51.60;;;;;;5047222;28;20045;-82
2023/10/11 02:59:56;;;;;;;4.40;1.90;;;26.70;51.80;;;;;;5044564;28;20013;-86
2023/10/11 03:02:29;;;;;;;6.55;2.00;;;26.70;51.70;;;;;;5048567;28;20035;-90
2023/10/11 03:05:01;;;;;;;4.57;2.00;;;26.60;51.70;;;;;;5047942;28;20033;-82
2023/10/11 03:07:33;;;;;;;22.60;2.83;;;26.50;51.90;;;;;;5046640;28;20029;-78
2023/10/11 03:10:00;;;;;;;6.40;2.17;;;26.50;51.80;;;;;;5051602;28;20024;-89
2023/10/11 03:12:38;;;;;;;4.65;2.13;;;26.50;52.10;;;;;;5055474;28;20107;-86
2023/10/11 03:15:09;;;;;;;5.07;2.20;;;26.60;52.00;;;;;;5048675;28;20018;-90
2023/10/11 03:17:43;;;;;;;6.07;2.10;;;26.70;52.00;;;;;;5038901;28;20030;-79
2023/10/11 03:20:44;;;;;;;4.68;1.95;;;26.70;51.60;;;;;;5055353;28;20021;-78
2023/10/11 03:23:13;;;;;;;5.57;1.92;;;26.80;52.00;;;;;;5044348;28;20036;-77
2023/10/11 03:25:48;;;;;;;4.28;1.65;;;26.70;52.00;;;;;;5053687;28;20159;-77
2023/10/11 03:28:21;;;;;;;5.68;2.13;;;26.80;52.10;;;;;;5040921;28;20021;-82
2023/10/11 03:30:48;;;;;;;4.90;1.80;;;26.70;52.00;;;;;;5053617;28;20029;-81
2023/10/11 03:33:17;;;;;;;4.93;2.00;;;26.70;51.90;;;;;;5069662;28;20017;-79
2023/10/11 03:35:45;;;;;;;4.95;1.80;;;26.70;51.60;;;;;;5052185;28;20033;-79
2023/10/11 03:38:21;;;;;;;7.35;1.67;;;26.70;51.70;;;;;;5042479;28;20049;-80
2023/10/11 03:41:14;;;;;;;;;;;26.70;51.90;;;;;;5046885;28;20423;-83
2023/10/11 03:43:43;;;;;;;5.85;2.03;;;26.70;51.30;;;;;;5047153;28;19915;-78
2023/10/11 03:46:13;;;;;;;5.97;1.85;;;26.60;51.20;;;;;;5043705;28;20025;-79
2023/10/11 03:48:53;;;;;;;7.43;1.90;;;26.60;51.30;;;;;;5046754;28;20491;-81
2023/10/11 03:51:22;;;;;;;6.20;2.10;;;26.60;50.90;;;;;;5060435;28;20029;-84
2023/10/11 03:53:52;;;;;;;6.05;1.58;;;26.50;51.50;;;;;;5059492;28;20146;-79
2023/10/11 03:56:19;;;;;;;7.22;2.25;;;26.60;51.30;;;;;;5059269;28;20326;-78
2023/10/11 03:58:50;;;;;;;7.28;1.92;;;26.60;51.00;;;;;;5051700;28;20431;-82
2023/10/11 04:03:49;;;;;;;5.70;1.85;;;26.80;50.40;;;;;;5055769;28;20053;-79
2023/10/11 04:06:19;;;;;;;5.70;1.65;;;26.70;50.30;;;;;;5054299;28;20464;-81
2023/10/11 04:08:55;;;;;;;5.25;1.83;;;26.70;50.60;;;;;;5062457;28;20522;-79
2023/10/11 04:11:37;;;;;;;6.32;1.85;;;26.70;50.60;;;;;;5059989;28;20032;-82
2023/10/11 04:14:23;;;;;;;6.32;1.60;;;26.60;51.40;;;;;;5050189;28;20040;-83
2023/10/11 04:17:00;;;;;;;8.35;1.83;;;26.60;51.70;;;;;;5056438;28;20032;-81
2023/10/11 04:19:31;;;;;;;6.43;1.75;;;26.70;50.80;;;;;;5051690;28;20041;-80
2023/10/11 04:22:12;;;;;;;5.38;1.70;;;26.60;50.90;;;;;;5040175;28;20024;-82
2023/10/11 04:24:41;;;;;;;6.85;1.85;;;26.70;50.60;;;;;;5048122;28;20064;-83
2023/10/11 04:29:51;;;;;;;5.35;1.75;;;26.50;50.80;;;;;;5044077;28;20025;-87
2023/10/11 04:32:41;;;;;;;5.28;1.75;;;26.50;50.80;;;;;;5068553;28;20040;-79
2023/10/11 04:35:22;;;;;;;9.13;1.70;;;26.40;50.70;;;;;;5050510;28;20039;-80
2023/10/11 04:38:03;;;;;;;2.85;1.20;;;26.30;50.90;;;;;;5054096;28;20131;-78
2023/10/11 04:43:06;;;;;;;4.40;1.60;;;26.30;51.10;;;;;;5074088;28;20017;-83
2023/10/11 04:45:44;;;;;;;7.38;1.60;;;26.30;51.70;;;;;;5072617;28;20048;-83
2023/10/11 04:48:18;;;;;;;5.88;1.73;;;26.30;51.40;;;;;;5056437;28;20033;-79
2023/10/11 04:50:48;;;;;;;8.32;1.80;;;26.30;52.00;;;;;;5048538;28;20021;-79
2023/10/11 04:53:18;;;;;;;6.60;1.73;;;26.30;52.00;;;;;;5037593;28;20377;-79
2023/10/11 04:55:48;;;;;;;5.70;1.63;;;26.20;52.40;;;;;;5066504;28;20111;-79
2023/10/11 04:58:40;;;;;;;7.25;1.70;;;26.30;51.90;;;;;;5048887;28;20049;-78
2023/10/11 05:01:20;;;;;;;6.32;1.42;;;26.20;51.70;;;;;;5052701;28;20384;-77
2023/10/11 05:03:58;;;;;;;5.03;1.40;;;26.20;51.90;;;;;;5049736;28;20017;-79
2023/10/11 05:06:31;;;;;;;5.95;1.80;;;26.20;52.10;;;;;;5051745;28;20120;-80
2023/10/11 05:09:21;;;;;;;4.50;1.38;;;26.10;52.10;;;;;;5052014;28;20022;-79
2023/10/11 05:11:50;;;;;;;7.82;2.05;;;26.10;51.90;;;;;;5031293;28;20033;-79
2023/10/11 05:14:30;;;;;;;7.50;1.70;;;26.20;52.20;;;;;;5047246;28;20013;-79
2023/10/11 05:19:45;;;;;;;4.03;1.40;;;26.10;51.50;;;;;;5051344;28;20396;-80
2023/10/11 05:52:17;;;;;;;4.97;1.70;;;25.90;53.40;;;;;;5042116;28;20043;-84
2023/10/11 05:54:45;;;;;;;5.68;1.80;;;25.80;53.40;;;;;;5050631;28;20033;-80
2023/10/11 05:57:19;;;;;;;6.10;1.70;;;25.80;53.50;;;;;;5034765;28;20061;-80
2023/10/11 05:59:47;;;;;;;6.95;1.55;;;25.70;53.60;;;;;;5043956;28;20400;-78
2023/10/11 06:02:15;;;;;;;6.40;1.73;;;25.60;54.10;;;;;;5039301;28;20036;-80
2023/10/11 06:04:43;;;;;;;10.07;1.85;;;25.60;54.20;;;;;;5046250;28;20075;-85
2023/10/11 06:07:13;;;;;;;5.00;1.58;;;25.70;54.30;;;;;;5042871;28;20123;-80
2023/10/11 06:09:46;;;;;;;4.63;1.55;;;25.80;54.30;;;;;;5038571;28;20034;-78
2023/10/11 06:12:28;;;;;;;8.27;1.90;;;25.80;54.00;;;;;;5045736;28;20468;-80
2023/10/11 06:14:56;;;;;;;7.35;2.00;;;25.80;54.10;;;;;;5045254;28;20497;-79
2023/10/11 06:17:48;;;;;;;4.97;1.63;;;25.80;54.20;;;;;;5048233;28;20407;-85
2023/10/11 06:20:38;;;;;;;7.68;1.80;;;25.90;53.90;;;;;;5045960;28;20025;-81
2023/10/11 06:23:05;;;;;;;4.78;1.80;;;25.90;53.80;;;;;;5047391;28;20033;-83
2023/10/11 06:25:50;;;;;;;7.07;1.73;;;25.90;53.70;;;;;;5051410;28;20434;-84
2023/10/11 06:28:18;;;;;;;4.20;1.70;;;25.90;53.90;;;;;;5051786;28;20030;-85
2023/10/11 06:30:50;;;;;;;4.38;1.38;;;25.90;53.90;;;;;;5046724;28;20384;-87
2023/10/11 06:33:21;;;;;;;5.85;2.08;;;25.90;53.70;;;;;;5042116;28;20036;-80
2023/10/11 06:35:49;;;;;;;7.43;1.80;;;25.90;53.80;;;;;;5047670;28;20032;-81
2023/10/11 06:38:16;;;;;;;5.75;1.67;;;25.90;53.80;;;;;;5047192;28;20404;-88
2023/10/11 06:40:47;;;;;;;5.00;1.70;;;25.80;54.00;;;;;;5066976;28;20040;-82
2023/10/11 06:43:14;;;;;;;8.30;1.88;;;25.80;54.40;;;;;;5044728;28;20028;-81
2023/10/11 06:45:42;;;;;;;6.88;1.63;;;25.80;54.60;;;;;;5048602;28;20024;-78
2023/10/11 06:48:13;;;;;;;5.25;1.70;;;25.80;54.80;;;;;;5046157;28;20021;-85
2023/10/11 06:50:40;;;;;;;9.93;1.70;;;25.80;54.70;;;;;;5043346;28;20041;-79
2023/10/11 06:53:09;;;;;;;5.65;1.63;;;25.80;54.70;;;;;;5047272;28;20025;-80
2023/10/11 06:55:52;;;;;;;8.63;1.60;;;25.70;54.80;;;;;;5047541;28;20031;-81
2023/10/11 06:58:20;;;;;;;7.85;1.98;;;25.60;54.90;;;;;;5050422;28;20123;-86
2023/10/11 07:00:48;;;;;;;7.72;1.67;;;25.40;55.10;;;;;;5054374;28;20025;-80
2023/10/11 07:06:00;;;;;;;5.00;1.95;;;25.00;55.50;;;;;;5055508;28;20035;-81
2023/10/11 07:08:35;;;;;;;6.77;1.80;;;24.80;56.40;;;;;;5055489;28;20024;-81
2023/10/11 07:16:37;;;;;;;4.63;1.55;;;24.30;57.40;;;;;;5030986;28;20034;-88
2023/10/11 07:19:06;;;;;;;6.03;1.45;;;24.20;57.80;;;;;;5036979;28;20480;-79
2023/10/11 07:21:52;;;;;;;6.00;1.90;;;24.00;58.00;;;;;;5037786;28;20525;-85
2023/10/11 07:24:19;;;;;;;6.05;1.83;;;23.80;58.20;;;;;;5036765;28;20026;-87
2023/10/11 07:26:48;;;;;;;4.60;1.55;;;23.70;58.80;;;;;;5035999;28;20029;-81
2023/10/11 07:29:20;;;;;;;7.15;1.67;;;23.60;59.00;;;;;;5035181;28;20108;-80
2023/10/11 07:31:51;;;;;;;4.65;1.60;;;23.40;59.70;;;;;;5053678;28;20021;-83
2023/10/11 07:34:25;;;;;;;5.25;1.60;;;23.30;60.30;;;;;;5054188;28;20400;-79
2023/10/11 07:36:52;;;;;;;7.47;1.90;;;23.20;60.20;;;;;;5054821;28;20111;-82
2023/10/11 07:41:52;;;;;;;7.22;1.88;;;23.00;60.80;;;;;;5055203;28;20021;-86
2023/10/11 07:44:20;;;;;;;5.75;1.88;;;22.90;61.50;;;;;;5054913;28;20476;-81
2023/10/11 07:46:48;;;;;;;8.93;1.80;;;22.80;61.50;;;;;;5053431;28;20035;-86
2023/10/11 07:49:24;;;;;;;6.82;2.05;;;22.80;62.20;;;;;;5053337;28;20079;-82
2023/10/11 07:51:59;;;;;;;6.88;1.90;;;22.70;62.70;;;;;;5054937;28;20024;-85
2023/10/11 07:54:27;;;;;;;10.65;2.38;;;22.70;63.00;;;;;;5052667;28;20017;-81
2023/10/11 07:57:00;;;;;;;5.93;1.98;;;22.50;63.30;;;;;;5053342;28;20039;-81
2023/10/11 07:59:30;;;;;;;4.68;1.67;;;22.40;63.70;;;;;;5051820;28;20115;-81
2023/10/11 08:01:59;;;;;;;6.85;1.98;;;22.40;63.80;;;;;;5045294;28;20633;-82
2023/10/11 08:04:28;;;;;;;7.32;2.28;;;22.30;64.20;;;;;;5054407;28;20095;-80
2023/10/11 08:06:59;;;;;;;10.40;2.78;;;22.30;64.50;;;;;;5054432;28;20021;-86
2023/10/11 08:09:46;;;;;;;9.73;2.85;;;22.20;64.90;;;;;;5054166;28;20028;-80
2023/10/11 08:12:18;;;;;;;6.85;2.10;;;22.10;64.90;;;;;;5054176;28;20071;-80
2023/10/11 08:14:46;;;;;;;8.98;2.17;;;22.10;65.40;;;;;;5054306;28;20032;-80
2023/10/11 08:17:13;;;;;;;9.40;1.92;;;22.10;65.50;;;;;;5046108;28;20536;-79
2023/10/11 08:19:45;;;;;;;5.05;1.80;;;22.00;65.70;;;;;;5053019;28;20037;-80
2023/10/11 08:22:14;;;;;;;5.07;1.75;;;22.00;66.00;;;;;;5053102;28;20033;-80
2023/10/11 08:24:48;;;;;;;4.20;1.65;;;21.90;66.00;;;;;;5053882;28;20021;-81
2023/10/11 08:27:38;;;;;;;5.18;1.77;;;21.90;66.50;;;;;;5053483;28;20033;-79
2023/10/11 08:30:17;;;;;;;7.88;2.03;;;21.80;66.80;;;;;;5054070;28;20033;-80
2023/10/11 08:32:47;;;;;;;8.68;2.10;;;21.80;67.10;;;;;;5052971;28;20032;-80
2023/10/11 08:35:37;;;;;;;7.05;1.83;;;21.80;67.30;;;;;;5053750;28;20055;-79
2023/10/11 08:38:06;;;;;;;5.93;1.70;;;21.70;67.30;;;;;;5053568;28;20051;-80
2023/10/11 08:40:37;;;;;;;5.50;1.80;;;21.60;67.90;;;;;;5054059;28;20031;-81
2023/10/11 08:43:06;;;;;;;4.43;1.60;;;21.60;68.00;;;;;;5053498;28;20161;-79
2023/10/11 08:45:59;;;;;;;7.10;1.98;;;21.60;68.30;;;;;;5046594;28;20026;-80
2023/10/11 08:48:28;;;;;;;8.68;2.28;;;21.60;68.50;;;;;;5033686;28;20372;-80
2023/10/11 08:50:56;;;;;;;5.30;1.73;;;21.50;68.70;;;;;;5033603;28;20029;-79
2023/10/11 08:53:24;;;;;;;5.53;1.70;;;21.50;69.00;;;;;;5033301;28;20075;-80
2023/10/11 08:56:02;;;;;;;9.05;1.95;;;21.50;68.90;;;;;;5033349;28;20468;-81
2023/10/11 08:58:30;;;;;;;10.77;2.03;;;21.50;69.20;;;;;;5033144;28;20040;-81
2023/10/11 09:00:59;;;;;;;6.72;1.98;;;21.40;69.30;;;;;;5042008;28;20078;-80
2023/10/11 09:03:31;;;;;;;6.45;1.98;;;21.30;69.20;;;;;;5052907;28;20021;-80
2023/10/11 09:05:59;;;;;;;5.68;1.73;;;21.30;69.50;;;;;;5053129;28;20049;-80
2023/10/11 09:08:35;;;;;;;6.43;1.95;;;21.30;69.70;;;;;;5051878;28;20029;-81
2023/10/11 09:11:34;;;;;;;5.70;1.70;;;21.20;69.80;;;;;;5053221;28;20029;-83
2023/10/11 09:14:24;;;;;;;5.93;1.70;;;21.20;69.80;;;;;;5051629;28;20422;-81
2023/10/11 09:16:57;;;;;;;7.63;1.75;;;21.20;69.80;;;;;;5052928;28;20021;-85
2023/10/11 09:19:28;;;;;;;9.82;2.00;;;21.20;70.00;;;;;;5052763;28;20052;-80
2023/10/11 09:22:17;;;;;;;5.18;1.77;;;21.20;70.20;;;;;;5047678;28;20476;-79
2023/10/11 09:24:45;;;;;;;6.68;2.03;;;21.10;70.30;;;;;;5053090;28;20029;-80
2023/10/11 09:27:22;;;;;;;7.28;2.08;;;21.20;70.30;;;;;;5040794;28;20033;-81
2023/10/11 09:29:52;;;;;;;5.90;1.50;;;21.20;70.10;;;;;;5046387;28;20027;-80
2023/10/11 09:32:19;;;;;;;4.25;1.60;;;21.10;70.30;;;;;;5054388;28;20021;-86
2023/10/11 09:34:50;;;;;;;8.60;1.92;;;21.00;70.40;;;;;;5056887;28;20081;-86
2023/10/11 09:37:20;;;;;;;7.25;1.75;;;21.00;70.50;;;;;;5054976;28;20132;-85
2023/10/11 09:39:51;;;;;;;5.65;1.70;;;21.00;70.50;;;;;;5047843;28;20041;-81
2023/10/11 09:42:24;;;;;;;7.63;2.33;;;21.00;70.40;;;;;;5038323;28;20017;-86
2023/10/11 09:44:57;;;;;;;6.72;1.80;;;21.00;70.60;;;;;;5037669;28;20480;-85
2023/10/11 09:47:31;;;;;;;8.70;1.83;;;21.00;70.50;;;;;;5037568;28;20029;-85
2023/10/11 09:50:01;;;;;;;9.77;1.83;;;21.00;70.40;;;;;;5034965;28;20024;-84
2023/10/11 09:52:30;;;;;;;8.07;2.15;;;21.00;70.30;;;;;;5037584;28;20047;-88
2023/10/11 09:55:03;;;;;;;5.65;1.67;;;21.00;70.50;;;;;;5038138;28;20026;-83
2023/10/11 09:57:55;;;;;;;6.43;1.50;;;21.00;70.40;;;;;;5054163;28;20030;-80
2023/10/11 10:00:44;;;;;;;4.72;1.40;;;21.00;70.40;;;;;;5042260;28;20498;-82
2023/10/11 10:03:13;;;;;;;9.07;2.03;;;21.00;70.40;;;;;;5059243;28;20017;-78
2023/10/11 10:06:10;;;;;;;7.72;1.95;;;21.00;70.20;;;;;;5062058;28;20369;-79
2023/10/11 10:08:37;;;;;;;11.02;1.60;;;20.90;70.30;;;;;;5064629;28;20006;-87
2023/10/11 10:11:05;;;;;;;5.68;1.63;;;20.90;70.50;;;;;;5057427;28;20025;-82
2023/10/11 10:17:11;;;;;;;5.40;1.58;;;20.90;70.30;;;;;;5047431;28;20033;-79
2023/10/11 10:19:46;;;;;;;4.63;1.38;;;20.90;70.40;;;;;;5042933;28;20175;-81
2023/10/11 10:22:16;;;;;;;4.53;1.70;;;20.80;70.50;;;;;;5058884;28;20675;-80
2023/10/11 10:24:47;;;;;;;7.65;1.88;;;20.80;70.50;;;;;;5039783;28;20040;-81
2023/10/11 10:27:36;;;;;;;6.30;1.65;;;20.80;70.70;;;;;;5048076;28;20044;-81
2023/10/11 10:30:05;;;;;;;4.80;1.70;;;20.80;70.40;;;;;;5055258;28;20025;-81
2023/10/11 10:32:34;;;;;;;6.13;2.13;;;20.80;70.60;;;;;;5043944;28;20025;-84
2023/10/11 10:35:20;;;;;;;7.20;2.13;;;20.80;70.60;;;;;;5032469;28;20033;-82
2023/10/11 10:37:56;;;;;;;7.57;2.35;;;20.80;70.70;;;;;;5038758;28;20144;-82
2023/10/11 10:40:27;;;;;;;5.07;2.00;;;20.80;70.70;;;;;;5037498;28;20393;-83
2023/10/11 10:43:27;;;;;;;12.32;2.17;;;20.80;70.80;;;;;;5045771;28;20116;-80
2023/10/11 10:45:59;;;;;;;6.05;1.70;;;20.80;70.70;;;;;;5036107;28;20035;-82
2023/10/11 10:48:43;;;;;;;4.95;1.65;;;20.80;70.80;;;;;;5042104;28;20423;-81
2023/10/11 10:51:11;;;;;;;3.47;1.77;;;20.80;70.50;;;;;;5042412;28;20415;-81
2023/10/11 10:53:50;;;;;;;7.50;2.00;;;20.80;70.60;;;;;;5046393;28;20028;-80
2023/10/11 10:56:21;;;;;;;9.75;2.00;;;20.80;70.50;;;;;;5042949;28;20116;-82
2023/10/11 10:58:49;;;;;;;8.80;2.63;;;20.80;70.50;;;;;;5061668;28;20074;-80
2023/10/11 11:01:29;;;;;;;5.60;2.05;;;20.80;70.50;;;;;;5055966;28;20370;-81
2023/10/11 11:04:00;;;;;;;9.27;1.70;;;20.80;70.70;;;;;;5045165;28;20089;-86
2023/10/11 11:06:44;;;;;;;5.63;1.80;;;20.80;70.80;;;;;;5039717;28;20029;-80
2023/10/11 11:09:25;;;;;;;6.95;2.13;;;20.80;70.70;;;;;;5044299;28;20079;-81
2023/10/11 11:12:04;;;;;;;3.05;1.60;;;20.80;70.80;;;;;;5044125;28;20109;-83
2023/10/11 11:14:31;;;;;;;5.85;1.90;;;20.80;70.90;;;;;;5052737;28;20107;-80
2023/10/11 11:17:00;;;;;;;4.80;1.83;;;20.70;71.00;;;;;;5036583;28;20029;-80
2023/10/11 11:19:34;;;;;;;6.93;2.15;;;20.70;71.10;;;;;;5039708;28;20045;-79
2023/10/11 11:22:11;;;;;;;5.95;1.63;;;20.60;71.20;;;;;;5047804;28;20021;-81
2023/10/11 11:24:41;;;;;;;5.70;1.83;;;20.50;71.50;;;;;;5050499;28;20476;-81
2023/10/11 11:27:26;;;;;;;6.72;2.35;;;20.40;71.60;;;;;;5050883;28;20479;-85
2023/10/11 11:29:54;;;;;;;7.93;2.30;;;20.40;71.90;;;;;;5042794;28;20095;-82
2023/10/11 11:32:37;;;;;;;3.17;1.70;;;20.40;72.00;;;;;;5058971;28;20100;-80
2023/10/11 11:38:07;;;;;;;6.95;2.25;;;20.30;72.00;;;;;;5037928;28;20088;-81
2023/10/11 11:40:37;;;;;;;5.82;2.15;;;20.30;72.10;;;;;;5054010;28;20028;-81
2023/10/11 11:43:05;;;;;;;9.98;2.38;;;20.20;72.30;;;;;;5051222;28;20032;-85
2023/10/11 11:45:36;;;;;;;4.38;1.90;;;20.20;72.30;;;;;;5038421;28;20025;-83
2023/10/11 11:48:05;;;;;;;3.85;1.85;;;20.20;72.50;;;;;;5057019;28;20086;-86
2023/10/11 11:50:33;;;;;;;6.97;2.03;;;20.20;72.60;;;;;;5061161;28;20372;-82
2023/10/11 11:53:02;;;;;;;7.05;1.98;;;20.10;72.60;;;;;;5050520;28;20097;-81
2023/10/11 11:55:29;;;;;;;5.88;1.83;;;20.00;72.90;;;;;;5037167;28;20024;-81
2023/10/11 11:57:57;;;;;;;4.50;1.60;;;20.10;72.80;;;;;;5041310;28;20036;-85
2023/10/11 12:02:58;;;;;;;5.07;1.67;;;20.00;73.10;;;;;;5049935;28;20044;-84
2023/10/11 12:05:27;;;;;;;7.05;2.13;;;19.90;73.30;;;;;;5052351;28;20029;-81
2023/10/11 12:07:57;;;;;;;7.80;2.05;;;19.90;73.50;;;;;;5041485;28;20029;-84
2023/10/11 12:10:28;;;;;;;5.70;1.92;;;19.80;73.50;;;;;;5044608;28;20021;-84
2023/10/11 12:13:05;;;;;;;7.50;2.00;;;19.80;73.60;;;;;;5071176;28;20115;-85
2023/10/11 12:15:33;;;;;;;4.47;1.88;;;19.80;73.80;;;;;;5056929;28;20844;-83
2023/10/11 12:18:05;;;;;;;7.70;2.20;;;19.80;74.00;;;;;;5057417;28;20047;-84
2023/10/11 12:20:36;;;;;;;6.03;2.13;;;19.70;74.00;;;;;;5044113;28;20498;-81
2023/10/11 12:23:07;;;;;;;4.53;1.83;;;19.70;74.20;;;;;;5046629;28;20392;-79
2023/10/11 12:25:38;;;;;;;5.20;2.20;;;19.70;74.60;;;;;;5044239;28;20063;-82
2023/10/11 12:28:08;;;;;;;4.93;2.13;;;19.70;74.40;;;;;;5046591;28;20471;-80
2023/10/11 12:30:36;;;;;;;7.18;2.17;;;19.70;74.50;;;;;;5040485;28;20029;-81
2023/10/11 12:33:07;;;;;;;5.70;2.20;;;19.70;74.50;;;;;;5051701;28;20063;-80
2023/10/11 12:35:40;;;;;;;7.80;2.33;;;19.70;74.40;;;;;;5039068;28;20115;-83
2023/10/11 12:38:12;;;;;;;8.27;2.50;;;19.60;74.50;;;;;;5049267;28;20056;-80
2023/10/11 12:40:44;;;;;;;7.82;2.08;;;19.60;74.60;;;;;;5067088;28;20028;-82
2023/10/11 12:43:12;;;;;;;7.07;2.25;;;19.60;74.70;;;;;;5036022;28;20075;-85
2023/10/11 12:45:43;;;;;;;4.43;1.90;;;19.60;74.80;;;;;;5040755;28;20080;-82
2023/10/11 12:48:10;;;;;;;7.68;2.50;;;19.50;75.00;;;;;;5035147;28;20036;-80
2023/10/11 12:50:38;;;;;;;6.50;2.40;;;19.60;74.90;;;;;;5049355;28;20362;-84
2023/10/11 12:53:11;;;;;;;7.88;2.67;;;19.50;74.70;;;;;;5041046;28;20048;-83
2023/10/11 12:55:43;;;;;;;5.07;1.90;;;19.50;74.70;;;;;;5043117;28;20022;-79
2023/10/11 12:58:15;;;;;;;5.95;2.40;;;19.40;74.90;;;;;;5044190;28;20048;-81
2023/10/11 13:00:58;;;;;;;7.18;2.10;;;19.30;75.30;;;;;;5052109;28;20021;-78
2023/10/11 13:05:54;;;;;;;4.45;2.00;;;19.40;75.40;;;;;;5039390;28;20037;-79
2023/10/11 13:08:24;;;;;;;8.05;2.20;;;19.40;75.30;;;;;;5047351;28;20051;-79
2023/10/11 13:10:53;;;;;;;4.85;1.90;;;19.40;75.30;;;;;;5049243;28;20506;-81
2023/10/11 13:13:27;;;;;;;6.90;2.40;;;19.30;75.20;;;;;;5057359;28;20021;-81
2023/10/11 13:16:00;;;;;;;6.25;2.17;;;19.30;75.30;;;;;;5045664;28;20091;-80
2023/10/11 13:18:31;;;;;;;8.00;2.15;;;19.40;75.40;;;;;;5042860;28;20033;-86
2023/10/11 13:21:02;;;;;;;6.15;2.10;;;19.30;75.20;;;;;;5038343;28;20025;-85
2023/10/11 13:23:29;;;;;;;8.70;2.20;;;19.30;75.30;;;;;;5047773;28;20060;-83
2023/10/11 13:26:06;;;;;;;5.47;2.38;;;19.30;75.60;;;;;;5044358;28;20033;-80
2023/10/11 13:28:38;;;;;;;7.07;2.50;;;19.30;75.50;;;;;;5050712;28;20559;-80
2023/10/11 13:31:05;;;;;;;5.70;2.15;;;19.30;75.30;;;;;;5048427;28;20086;-81
2023/10/11 13:33:34;;;;;;;5.35;1.95;;;19.20;75.80;;;;;;5051639;28;20093;-83
2023/10/11 13:36:05;;;;;;;6.72;2.65;;;19.20;75.70;;;;;;5050383;28;20391;-84
2023/10/11 13:38:34;;;;;;;5.30;2.70;;;19.20;75.70;;;;;;5049850;28;20119;-83
2023/10/11 13:41:01;;;;;;;6.13;2.08;;;19.20;75.90;;;;;;5041574;28;20021;-82
2023/10/11 13:43:28;;;;;;;6.38;2.75;;;19.20;75.90;;;;;;5042297;28;20039;-80
2023/10/11 13:46:06;;;;;;;6.20;2.20;;;19.20;75.90;;;;;;5048682;28;20051;-83
2023/10/11 13:48:37;;;;;;;9.90;2.38;;;19.20;75.80;;;;;;5043059;28;20029;-81
2023/10/11 13:51:16;;;;;;;9.32;2.50;;;19.20;75.90;;;;;;5058777;28;20035;-79
2023/10/11 13:53:44;;;;;;;7.57;2.33;;;19.10;76.00;;;;;;5056360;28;20055;-77
2023/10/11 13:56:24;;;;;;;4.90;1.83;;;19.10;76.00;;;;;;5048605;28;20022;-80
2023/10/11 13:58:53;;;;;;;8.48;2.47;;;19.00;76.20;;;;;;5046608;28;20051;-83
2023/10/11 14:04:13;;;;;;;7.00;1.90;;;19.00;76.30;;;;;;5047184;28;20043;-84
2023/10/11 14:06:46;;;;;;;4.55;1.90;;;19.00;76.50;;;;;;5052386;28;20073;-80
2023/10/11 14:09:16;;;;;;;7.15;2.00;;;19.00;76.40;;;;;;5049401;28;20075;-84
2023/10/11 14:11:48;;;;;;;5.00;2.00;;;19.10;76.20;;;;;;5050288;28;20040;-84
2023/10/11 14:14:24;;;;;;;6.88;2.05;;;19.10;76.00;;;;;;5049132;28;20028;-84
2023/10/11 14:16:52;;;;;;;6.85;2.22;;;19.20;75.70;;;;;;5048789;28;20021;-82
2023/10/11 14:19:24;;;;;;;7.70;2.65;;;19.10;75.50;;;;;;5050210;28;20039;-78
2023/10/11 14:21:52;;;;;;;3.05;1.80;;;19.10;75.40;;;;;;5052512;28;20025;-85
2023/10/11 14:24:19;;;;;;;5.70;2.60;;;19.00;76.00;;;;;;5063981;28;20024;-85